sensor_id;sensor_type;location;lat;lon;timestamp;pressure;altitude;pressure_sealevel;temperature;humidity
27052;BME280;14601;49.358;8.256;2022-07-05T00:02:20;100719.72;;;19.10;49.69
27052;BME280;14601;49.358;8.256;2022-07-05T00:05:21;100710.75;;;19.09;49.91
27052;BME280;14601;49.358;8.256;2022-07-05T00:08:23;100716.34;;;18.99;50.77
27052;BME280;14601;49.358;8.256;2022-07-05T00:11:25;100711.31;;;18.88;50.82
27052;BME280;14601;49.358;8.256;2022-07-05T00:14:27;100718.41;;;18.81;50.92
27052;BME280;14601;49.358;8.256;2022-07-05T00:17:30;100710.94;;;18.75;51.32
27052;BME280;14601;49.358;8.256;2022-07-05T00:20:31;100712.47;;;18.69;51.07
27052;BME280;14601;49.358;8.256;2022-07-05T00:23:33;100706.72;;;18.64;51.31
27052;BME280;14601;49.358;8.256;2022-07-05T00:26:35;100711.63;;;18.52;51.47
27052;BME280;14601;49.358;8.256;2022-07-05T00:29:37;100706.53;;;18.41;51.72
27052;BME280;14601;49.358;8.256;2022-07-05T00:32:40;100711.94;;;18.33;51.85
27052;BME280;14601;49.358;8.256;2022-07-05T00:35:42;100709.91;;;18.27;52.14
27052;BME280;14601;49.358;8.256;2022-07-05T00:38:43;100711.63;;;18.28;52.13
27052;BME280;14601;49.358;8.256;2022-07-05T00:41:45;100714.13;;;18.29;52.21
27052;BME280;14601;49.358;8.256;2022-07-05T00:44:46;100710.59;;;18.29;52.20
27052;BME280;14601;49.358;8.256;2022-07-05T00:47:49;100715.81;;;18.31;52.13
27052;BME280;14601;49.358;8.256;2022-07-05T00:50:51;100716.31;;;18.26;52.09
27052;BME280;14601;49.358;8.256;2022-07-05T00:53:52;100718.53;;;18.31;51.97
27052;BME280;14601;49.358;8.256;2022-07-05T00:56:54;100716.16;;;18.19;52.51
27052;BME280;14601;49.358;8.256;2022-07-05T00:59:56;100724.44;;;18.18;52.81
27052;BME280;14601;49.358;8.256;2022-07-05T01:02:59;100721.06;;;18.24;52.02
27052;BME280;14601;49.358;8.256;2022-07-05T01:06:01;100731.91;;;18.24;52.18
27052;BME280;14601;49.358;8.256;2022-07-05T01:09:03;100727.13;;;18.18;52.40
27052;BME280;14601;49.358;8.256;2022-07-05T01:12:05;100726.28;;;18.17;52.60
27052;BME280;14601;49.358;8.256;2022-07-05T01:15:07;100720.56;;;18.20;52.47
27052;BME280;14601;49.358;8.256;2022-07-05T01:18:11;100715.81;;;18.22;52.61
27052;BME280;14601;49.358;8.256;2022-07-05T01:21:13;100717.34;;;18.17;52.21
27052;BME280;14601;49.358;8.256;2022-07-05T01:24:20;100721.88;;;18.08;53.08
27052;BME280;14601;49.358;8.256;2022-07-05T01:27:21;100724.25;;;18.03;52.97
27052;BME280;14601;49.358;8.256;2022-07-05T01:30:23;100716.28;;;18.01;53.18
27052;BME280;14601;49.358;8.256;2022-07-05T01:33:28;100724.56;;;18.00;53.27
27052;BME280;14601;49.358;8.256;2022-07-05T01:36:30;100720.00;;;17.92;53.30
27052;BME280;14601;49.358;8.256;2022-07-05T01:39:33;100725.22;;;17.94;53.51
27052;BME280;14601;49.358;8.256;2022-07-05T01:42:36;100725.06;;;17.87;53.73
27052;BME280;14601;49.358;8.256;2022-07-05T01:45:37;100718.63;;;17.88;53.68
27052;BME280;14601;49.358;8.256;2022-07-05T01:48:42;100721.97;;;17.82;54.00
27052;BME280;14601;49.358;8.256;2022-07-05T01:51:45;100717.53;;;17.73;54.23
27052;BME280;14601;49.358;8.256;2022-07-05T01:54:51;100716.88;;;17.71;54.41
27052;BME280;14601;49.358;8.256;2022-07-05T01:57:52;100711.28;;;17.72;53.84
27052;BME280;14601;49.358;8.256;2022-07-05T02:00:55;100718.19;;;17.67;54.43
27052;BME280;14601;49.358;8.256;2022-07-05T02:03:57;100720.06;;;17.66;54.27
27052;BME280;14601;49.358;8.256;2022-07-05T02:07:03;100718.84;;;17.61;54.77
27052;BME280;14601;49.358;8.256;2022-07-05T02:10:06;100715.47;;;17.59;54.61
27052;BME280;14601;49.358;8.256;2022-07-05T02:13:09;100719.81;;;17.51;54.78
27052;BME280;14601;49.358;8.256;2022-07-05T02:16:11;100715.44;;;17.50;54.93
27052;BME280;14601;49.358;8.256;2022-07-05T02:19:13;100720.84;;;17.50;55.72
27052;BME280;14601;49.358;8.256;2022-07-05T02:22:17;100722.19;;;17.54;55.69
27052;BME280;14601;49.358;8.256;2022-07-05T02:25:20;100729.25;;;17.47;56.46
27052;BME280;14601;49.358;8.256;2022-07-05T02:28:22;100721.78;;;17.41;57.02
27052;BME280;14601;49.358;8.256;2022-07-05T02:31:25;100719.75;;;17.35;57.56
27052;BME280;14601;49.358;8.256;2022-07-05T02:34:29;100720.91;;;17.33;57.30
27052;BME280;14601;49.358;8.256;2022-07-05T02:37:31;100724.88;;;17.20;57.64
27052;BME280;14601;49.358;8.256;2022-07-05T02:40:34;100716.91;;;17.11;58.17
27052;BME280;14601;49.358;8.256;2022-07-05T02:43:38;100729.69;;;17.09;57.83
27052;BME280;14601;49.358;8.256;2022-07-05T02:46:41;100724.47;;;17.07;58.54
27052;BME280;14601;49.358;8.256;2022-07-05T02:49:43;100724.16;;;17.10;58.84
27052;BME280;14601;49.358;8.256;2022-07-05T02:52:45;100735.09;;;17.09;59.10
27052;BME280;14601;49.358;8.256;2022-07-05T02:55:49;100725.84;;;17.11;58.47
27052;BME280;14601;49.358;8.256;2022-07-05T02:58:52;100724.47;;;17.07;58.44
27052;BME280;14601;49.358;8.256;2022-07-05T03:01:55;100727.66;;;17.02;58.75
27052;BME280;14601;49.358;8.256;2022-07-05T03:04:57;100724.25;;;17.00;59.34
27052;BME280;14601;49.358;8.256;2022-07-05T03:07:59;100735.00;;;16.92;59.26
27052;BME280;14601;49.358;8.256;2022-07-05T03:11:05;100729.91;;;16.89;58.78
27052;BME280;14601;49.358;8.256;2022-07-05T03:14:08;100728.03;;;16.82;59.72
27052;BME280;14601;49.358;8.256;2022-07-05T03:17:09;100734.88;;;16.76;59.95
27052;BME280;14601;49.358;8.256;2022-07-05T03:20:11;100736.56;;;16.77;60.27
27052;BME280;14601;49.358;8.256;2022-07-05T03:23:13;100732.78;;;16.52;61.40
27052;BME280;14601;49.358;8.256;2022-07-05T03:26:22;100729.19;;;16.43;61.33
27052;BME280;14601;49.358;8.256;2022-07-05T03:29:24;100731.56;;;16.46;61.13
27052;BME280;14601;49.358;8.256;2022-07-05T03:32:27;100731.34;;;16.40;61.37
27052;BME280;14601;49.358;8.256;2022-07-05T03:35:30;100728.63;;;16.40;61.49
27052;BME280;14601;49.358;8.256;2022-07-05T03:38:32;100724.63;;;16.44;60.85
27052;BME280;14601;49.358;8.256;2022-07-05T03:41:35;100736.97;;;16.46;60.62
27052;BME280;14601;49.358;8.256;2022-07-05T03:44:39;100747.38;;;16.41;60.84
27052;BME280;14601;49.358;8.256;2022-07-05T03:47:41;100739.97;;;16.43;61.24
27052;BME280;14601;49.358;8.256;2022-07-05T03:50:45;100744.69;;;16.41;61.07
27052;BME280;14601;49.358;8.256;2022-07-05T03:53:47;100749.75;;;16.44;61.60
27052;BME280;14601;49.358;8.256;2022-07-05T03:56:51;100753.16;;;16.46;61.41
27052;BME280;14601;49.358;8.256;2022-07-05T03:59:54;100754.47;;;16.42;62.11
27052;BME280;14601;49.358;8.256;2022-07-05T04:02:55;100755.78;;;16.38;62.05
27052;BME280;14601;49.358;8.256;2022-07-05T04:05:58;100756.59;;;16.39;61.98
27052;BME280;14601;49.358;8.256;2022-07-05T04:09:01;100767.69;;;16.36;62.59
27052;BME280;14601;49.358;8.256;2022-07-05T04:12:04;100761.84;;;16.40;62.22
27052;BME280;14601;49.358;8.256;2022-07-05T04:15:07;100763.94;;;16.46;61.91
27052;BME280;14601;49.358;8.256;2022-07-05T04:18:09;100768.00;;;16.50;61.81
27052;BME280;14601;49.358;8.256;2022-07-05T04:21:14;100773.25;;;16.52;61.69
27052;BME280;14601;49.358;8.256;2022-07-05T04:24:16;100766.00;;;16.52;61.96
27052;BME280;14601;49.358;8.256;2022-07-05T04:27:20;100764.09;;;16.63;62.19
27052;BME280;14601;49.358;8.256;2022-07-05T04:30:23;100775.41;;;16.66;62.06
27052;BME280;14601;49.358;8.256;2022-07-05T04:33:25;100781.66;;;16.67;61.58
27052;BME280;14601;49.358;8.256;2022-07-05T04:36:30;100778.66;;;16.70;61.69
27052;BME280;14601;49.358;8.256;2022-07-05T04:39:33;100784.28;;;16.76;61.30
27052;BME280;14601;49.358;8.256;2022-07-05T04:42:42;100777.81;;;16.87;60.96
27052;BME280;14601;49.358;8.256;2022-07-05T04:45:46;100784.94;;;16.96;60.62
27052;BME280;14601;49.358;8.256;2022-07-05T04:48:49;100779.78;;;17.03;60.23
27052;BME280;14601;49.358;8.256;2022-07-05T04:51:51;100790.63;;;17.11;59.98
27052;BME280;14601;49.358;8.256;2022-07-05T04:54:54;100789.84;;;17.19;59.64
27052;BME280;14601;49.358;8.256;2022-07-05T04:57:57;100787.34;;;17.25;59.64
27052;BME280;14601;49.358;8.256;2022-07-05T05:00:59;100790.97;;;17.34;59.39
27052;BME280;14601;49.358;8.256;2022-07-05T05:04:01;100793.72;;;17.42;59.13
27052;BME280;14601;49.358;8.256;2022-07-05T05:07:03;100785.50;;;17.52;58.50
27052;BME280;14601;49.358;8.256;2022-07-05T05:10:05;100788.75;;;17.64;58.00
27052;BME280;14601;49.358;8.256;2022-07-05T05:13:08;100790.47;;;17.73;57.63
27052;BME280;14601;49.358;8.256;2022-07-05T05:16:10;100795.63;;;17.84;57.08
27052;BME280;14601;49.358;8.256;2022-07-05T05:19:11;100787.25;;;17.95;56.77
27052;BME280;14601;49.358;8.256;2022-07-05T05:22:13;100790.81;;;18.04;56.63
27052;BME280;14601;49.358;8.256;2022-07-05T05:25:15;100796.75;;;18.08;56.17
27052;BME280;14601;49.358;8.256;2022-07-05T05:28:18;100807.59;;;18.16;56.38
27052;BME280;14601;49.358;8.256;2022-07-05T05:31:19;100793.91;;;18.25;56.27
27052;BME280;14601;49.358;8.256;2022-07-05T05:34:21;100805.44;;;18.36;56.10
27052;BME280;14601;49.358;8.256;2022-07-05T05:37:22;100799.22;;;18.43;56.00
27052;BME280;14601;49.358;8.256;2022-07-05T05:40:24;100807.69;;;18.57;56.53
27052;BME280;14601;49.358;8.256;2022-07-05T05:43:27;100808.91;;;18.70;55.30
27052;BME280;14601;49.358;8.256;2022-07-05T05:46:29;100813.81;;;18.83;54.87
27052;BME280;14601;49.358;8.256;2022-07-05T05:49:31;100824.31;;;18.94;53.86
27052;BME280;14601;49.358;8.256;2022-07-05T05:52:32;100819.72;;;19.03;51.76
27052;BME280;14601;49.358;8.256;2022-07-05T05:55:34;100825.50;;;19.16;52.76
27052;BME280;14601;49.358;8.256;2022-07-05T05:58:37;100825.97;;;19.20;52.22
27052;BME280;14601;49.358;8.256;2022-07-05T06:01:39;100817.84;;;19.28;52.03
27052;BME280;14601;49.358;8.256;2022-07-05T06:04:40;100821.41;;;19.37;51.96
27052;BME280;14601;49.358;8.256;2022-07-05T06:07:43;100827.81;;;19.44;50.83
27052;BME280;14601;49.358;8.256;2022-07-05T06:10:45;100835.75;;;19.54;50.74
27052;BME280;14601;49.358;8.256;2022-07-05T06:13:48;100834.41;;;19.66;51.06
27052;BME280;14601;49.358;8.256;2022-07-05T06:16:50;100826.38;;;19.81;50.09
27052;BME280;14601;49.358;8.256;2022-07-05T06:19:51;100842.13;;;19.93;49.61
27052;BME280;14601;49.358;8.256;2022-07-05T06:22:53;100836.66;;;20.02;49.10
27052;BME280;14601;49.358;8.256;2022-07-05T06:25:55;100835.41;;;20.12;48.50
27052;BME280;14601;49.358;8.256;2022-07-05T06:28:57;100842.03;;;20.18;48.10
27052;BME280;14601;49.358;8.256;2022-07-05T06:31:59;100836.72;;;20.24;47.83
27052;BME280;14601;49.358;8.256;2022-07-05T06:35:01;100837.78;;;20.46;47.76
27052;BME280;14601;49.358;8.256;2022-07-05T06:38:03;100841.13;;;20.57;46.38
27052;BME280;14601;49.358;8.256;2022-07-05T06:41:05;100842.72;;;20.74;45.76
27052;BME280;14601;49.358;8.256;2022-07-05T06:44:08;100839.22;;;20.88;45.62
27052;BME280;14601;49.358;8.256;2022-07-05T06:47:10;100841.53;;;20.99;45.05
27052;BME280;14601;49.358;8.256;2022-07-05T06:50:11;100846.94;;;20.99;45.27
27052;BME280;14601;49.358;8.256;2022-07-05T06:53:13;100846.91;;;21.22;44.81
27052;BME280;14601;49.358;8.256;2022-07-05T06:56:15;100848.38;;;21.33;44.66
27052;BME280;14601;49.358;8.256;2022-07-05T06:59:18;100850.25;;;21.33;45.02
27052;BME280;14601;49.358;8.256;2022-07-05T07:02:19;100854.06;;;21.61;44.54
27052;BME280;14601;49.358;8.256;2022-07-05T07:05:21;100854.88;;;21.62;44.29
27052;BME280;14601;49.358;8.256;2022-07-05T07:08:23;100850.50;;;21.61;44.34
27052;BME280;14601;49.358;8.256;2022-07-05T07:11:42;100856.03;;;21.82;44.05
27052;BME280;14601;49.358;8.256;2022-07-05T07:14:46;100857.72;;;21.83;44.45
27052;BME280;14601;49.358;8.256;2022-07-05T07:17:47;100853.41;;;22.33;43.02
27052;BME280;14601;49.358;8.256;2022-07-05T07:20:49;100855.66;;;22.66;42.12
27052;BME280;14601;49.358;8.256;2022-07-05T07:23:50;100856.75;;;25.14;36.97
27052;BME280;14601;49.358;8.256;2022-07-05T07:26:52;100856.06;;;28.07;32.11
27052;BME280;14601;49.358;8.256;2022-07-05T07:30:10;100849.72;;;29.03;29.91
27052;BME280;14601;49.358;8.256;2022-07-05T07:33:11;100847.97;;;30.84;27.35
27052;BME280;14601;49.358;8.256;2022-07-05T07:36:13;100845.22;;;32.78;24.61
27052;BME280;14601;49.358;8.256;2022-07-05T07:39:15;100843.47;;;32.00;25.61
27052;BME280;14601;49.358;8.256;2022-07-05T07:42:18;100842.91;;;35.17;22.25
27052;BME280;14601;49.358;8.256;2022-07-05T07:45:21;100848.13;;;36.50;20.43
27052;BME280;14601;49.358;8.256;2022-07-05T07:48:23;100845.59;;;35.73;21.20
27052;BME280;14601;49.358;8.256;2022-07-05T07:51:25;100858.72;;;31.64;25.26
27052;BME280;14601;49.358;8.256;2022-07-05T07:54:27;100852.31;;;31.81;25.21
27052;BME280;14601;49.358;8.256;2022-07-05T07:57:29;100845.56;;;36.04;20.66
27052;BME280;14601;49.358;8.256;2022-07-05T08:00:32;100843.72;;;36.88;20.21
27052;BME280;14601;49.358;8.256;2022-07-05T08:03:33;100857.34;;;32.71;23.59
27052;BME280;14601;49.358;8.256;2022-07-05T08:06:35;100854.78;;;33.24;23.01
27052;BME280;14601;49.358;8.256;2022-07-05T08:09:37;100854.47;;;30.77;26.16
27052;BME280;14601;49.358;8.256;2022-07-05T08:12:39;100849.47;;;33.92;22.87
27052;BME280;14601;49.358;8.256;2022-07-05T08:15:42;100849.81;;;35.25;21.39
27052;BME280;14601;49.358;8.256;2022-07-05T08:18:43;100847.78;;;36.67;19.39
27052;BME280;14601;49.358;8.256;2022-07-05T08:22:13;100846.69;;;36.62;19.77
27052;BME280;14601;49.358;8.256;2022-07-05T08:25:15;100837.59;;;37.54;19.20
27052;BME280;14601;49.358;8.256;2022-07-05T08:28:17;100841.34;;;38.17;17.95
27052;BME280;14601;49.358;8.256;2022-07-05T08:31:20;100840.34;;;34.64;21.71
27052;BME280;14601;49.358;8.256;2022-07-05T08:34:22;100840.13;;;34.08;21.70
27052;BME280;14601;49.358;8.256;2022-07-05T08:37:23;100842.09;;;33.28;22.91
27052;BME280;14601;49.358;8.256;2022-07-05T08:40:25;100834.53;;;35.63;20.29
27052;BME280;14601;49.358;8.256;2022-07-05T08:43:27;100828.72;;;35.39;20.12
27052;BME280;14601;49.358;8.256;2022-07-05T08:46:31;100830.94;;;36.32;18.26
27052;BME280;14601;49.358;8.256;2022-07-05T08:49:33;100829.59;;;34.10;21.08
27052;BME280;14601;49.358;8.256;2022-07-05T08:52:35;100823.91;;;36.89;18.59
27052;BME280;14601;49.358;8.256;2022-07-05T08:55:37;100835.91;;;35.71;19.54
27052;BME280;14601;49.358;8.256;2022-07-05T08:58:39;100827.34;;;35.41;20.29
27052;BME280;14601;49.358;8.256;2022-07-05T09:01:43;100824.56;;;35.26;19.86
27052;BME280;14601;49.358;8.256;2022-07-05T09:04:46;100824.84;;;35.30;20.40
27052;BME280;14601;49.358;8.256;2022-07-05T09:07:52;100828.38;;;36.51;19.29
27052;BME280;14601;49.358;8.256;2022-07-05T09:10:56;100825.25;;;36.63;19.00
27052;BME280;14601;49.358;8.256;2022-07-05T09:13:58;100822.69;;;36.17;19.09
27052;BME280;14601;49.358;8.256;2022-07-05T09:17:01;100832.91;;;35.01;20.51
27052;BME280;14601;49.358;8.256;2022-07-05T09:20:09;100821.50;;;35.12;20.16
27052;BME280;14601;49.358;8.256;2022-07-05T09:23:12;100819.53;;;33.94;21.57
27052;BME280;14601;49.358;8.256;2022-07-05T09:26:16;100838.38;;;32.36;23.13
27052;BME280;14601;49.358;8.256;2022-07-05T09:29:18;100836.84;;;32.23;23.37
27052;BME280;14601;49.358;8.256;2022-07-05T09:32:24;100844.03;;;29.28;27.11
27052;BME280;14601;49.358;8.256;2022-07-05T09:35:26;100829.97;;;30.12;26.63
27052;BME280;14601;49.358;8.256;2022-07-05T09:38:28;100830.81;;;30.53;25.30
27052;BME280;14601;49.358;8.256;2022-07-05T09:41:30;100824.72;;;31.47;24.59
27052;BME280;14601;49.358;8.256;2022-07-05T09:44:35;100824.19;;;33.04;22.88
27052;BME280;14601;49.358;8.256;2022-07-05T09:47:38;100832.16;;;33.00;22.76
27052;BME280;14601;49.358;8.256;2022-07-05T09:50:40;100827.56;;;32.84;22.68
27052;BME280;14601;49.358;8.256;2022-07-05T09:53:45;100814.13;;;34.30;21.06
27052;BME280;14601;49.358;8.256;2022-07-05T09:56:47;100820.50;;;34.20;21.36
27052;BME280;14601;49.358;8.256;2022-07-05T09:59:55;100825.69;;;34.01;20.82
27052;BME280;14601;49.358;8.256;2022-07-05T10:03:00;100823.84;;;32.24;22.96
27052;BME280;14601;49.358;8.256;2022-07-05T10:06:09;100825.59;;;30.68;24.73
27052;BME280;14601;49.358;8.256;2022-07-05T10:09:11;100820.13;;;30.85;24.98
27052;BME280;14601;49.358;8.256;2022-07-05T10:12:14;100823.22;;;31.22;24.33
27052;BME280;14601;49.358;8.256;2022-07-05T10:15:18;100836.84;;;28.07;26.93
27052;BME280;14601;49.358;8.256;2022-07-05T10:18:21;100830.59;;;28.37;26.33
27052;BME280;14601;49.358;8.256;2022-07-05T10:21:31;100830.06;;;28.09;26.63
27052;BME280;14601;49.358;8.256;2022-07-05T10:24:33;100823.31;;;28.72;25.60
27052;BME280;14601;49.358;8.256;2022-07-05T10:27:36;100820.53;;;30.08;23.93
27052;BME280;14601;49.358;8.256;2022-07-05T10:30:38;100823.84;;;28.81;25.55
27052;BME280;14601;49.358;8.256;2022-07-05T10:33:41;100825.13;;;28.00;26.97
27052;BME280;14601;49.358;8.256;2022-07-05T10:36:42;100823.72;;;27.72;27.32
27052;BME280;14601;49.358;8.256;2022-07-05T10:39:44;100825.56;;;28.64;25.99
27052;BME280;14601;49.358;8.256;2022-07-05T10:42:47;100818.69;;;28.85;25.49
27052;BME280;14601;49.358;8.256;2022-07-05T10:45:50;100822.03;;;28.45;26.45
27052;BME280;14601;49.358;8.256;2022-07-05T10:49:00;100829.78;;;29.20;24.82
27052;BME280;14601;49.358;8.256;2022-07-05T10:52:23;100815.91;;;29.73;24.62
27052;BME280;14601;49.358;8.256;2022-07-05T10:55:25;100801.06;;;29.39;24.49
27052;BME280;14601;49.358;8.256;2022-07-05T10:58:32;100807.59;;;29.97;23.72
27052;BME280;14601;49.358;8.256;2022-07-05T11:01:38;100805.88;;;29.79;23.82
27052;BME280;14601;49.358;8.256;2022-07-05T11:04:41;100806.31;;;29.88;23.53
27052;BME280;14601;49.358;8.256;2022-07-05T11:07:58;100806.13;;;28.47;26.40
27052;BME280;14601;49.358;8.256;2022-07-05T11:11:09;100805.09;;;28.59;25.72
27052;BME280;14601;49.358;8.256;2022-07-05T11:14:31;100812.25;;;28.49;25.33
27052;BME280;14601;49.358;8.256;2022-07-05T11:17:34;100808.16;;;28.21;25.11
27052;BME280;14601;49.358;8.256;2022-07-05T11:20:38;100802.41;;;27.49;26.27
27052;BME280;14601;49.358;8.256;2022-07-05T11:23:40;100808.56;;;27.88;26.83
27052;BME280;14601;49.358;8.256;2022-07-05T11:26:42;100803.97;;;27.82;26.96
27052;BME280;14601;49.358;8.256;2022-07-05T11:29:44;100802.78;;;27.96;26.83
27052;BME280;14601;49.358;8.256;2022-07-05T11:32:46;100795.81;;;28.12;25.83
27052;BME280;14601;49.358;8.256;2022-07-05T11:35:49;100790.59;;;28.22;25.50
27052;BME280;14601;49.358;8.256;2022-07-05T11:42:07;100787.28;;;28.02;25.77
27052;BME280;14601;49.358;8.256;2022-07-05T11:45:09;100790.53;;;27.55;26.92
27052;BME280;14601;49.358;8.256;2022-07-05T11:48:14;100772.44;;;27.66;26.77
27052;BME280;14601;49.358;8.256;2022-07-05T11:51:17;100774.53;;;27.89;25.71
27052;BME280;14601;49.358;8.256;2022-07-05T11:54:22;100774.97;;;28.53;24.15
27052;BME280;14601;49.358;8.256;2022-07-05T11:57:23;100772.31;;;28.46;24.51
27052;BME280;14601;49.358;8.256;2022-07-05T12:00:26;100768.41;;;28.24;24.42
27052;BME280;14601;49.358;8.256;2022-07-05T12:03:28;100767.00;;;28.33;24.96
27052;BME280;14601;49.358;8.256;2022-07-05T12:06:31;100758.91;;;28.08;26.22
27052;BME280;14601;49.358;8.256;2022-07-05T12:09:41;100759.53;;;27.92;27.29
27052;BME280;14601;49.358;8.256;2022-07-05T12:13:03;100763.38;;;28.02;27.21
27052;BME280;14601;49.358;8.256;2022-07-05T12:16:04;100755.63;;;28.29;26.58
27052;BME280;14601;49.358;8.256;2022-07-05T12:19:07;100745.47;;;28.30;26.04
27052;BME280;14601;49.358;8.256;2022-07-05T12:22:10;100740.09;;;28.53;25.55
27052;BME280;14601;49.358;8.256;2022-07-05T12:25:12;100740.00;;;28.83;25.36
27052;BME280;14601;49.358;8.256;2022-07-05T12:28:14;100748.94;;;28.25;25.89
27052;BME280;14601;49.358;8.256;2022-07-05T12:31:17;100742.78;;;28.12;25.62
27052;BME280;14601;49.358;8.256;2022-07-05T12:34:18;100747.22;;;27.94;25.91
27052;BME280;14601;49.358;8.256;2022-07-05T12:37:23;100739.97;;;28.30;25.69
27052;BME280;14601;49.358;8.256;2022-07-05T12:40:25;100744.53;;;28.06;25.32
27052;BME280;14601;49.358;8.256;2022-07-05T12:43:26;100741.38;;;28.21;24.85
27052;BME280;14601;49.358;8.256;2022-07-05T12:46:34;100741.25;;;28.16;25.01
27052;BME280;14601;49.358;8.256;2022-07-05T12:49:52;100731.03;;;28.34;25.01
27052;BME280;14601;49.358;8.256;2022-07-05T12:52:59;100729.16;;;29.00;24.40
27052;BME280;14601;49.358;8.256;2022-07-05T12:56:02;100731.97;;;28.58;24.82
27052;BME280;14601;49.358;8.256;2022-07-05T12:59:22;100717.53;;;28.87;24.42
27052;BME280;14601;49.358;8.256;2022-07-05T13:02:33;100718.50;;;28.80;24.72
27052;BME280;14601;49.358;8.256;2022-07-05T13:05:34;100716.16;;;28.12;25.86
27052;BME280;14601;49.358;8.256;2022-07-05T13:08:38;100718.97;;;28.77;24.78
27052;BME280;14601;49.358;8.256;2022-07-05T13:11:40;100709.69;;;29.25;24.48
27052;BME280;14601;49.358;8.256;2022-07-05T13:14:42;100724.16;;;29.85;23.51
27052;BME280;14601;49.358;8.256;2022-07-05T13:17:45;100720.69;;;29.25;23.99
27052;BME280;14601;49.358;8.256;2022-07-05T13:20:46;100707.47;;;30.03;22.97
27052;BME280;14601;49.358;8.256;2022-07-05T13:23:51;100709.91;;;29.12;22.96
27052;BME280;14601;49.358;8.256;2022-07-05T13:26:53;100704.88;;;28.74;23.01
27052;BME280;14601;49.358;8.256;2022-07-05T13:29:55;100720.03;;;28.65;23.21
27052;BME280;14601;49.358;8.256;2022-07-05T13:32:56;100719.66;;;28.61;23.27
27052;BME280;14601;49.358;8.256;2022-07-05T13:35:58;100711.25;;;29.10;22.55
27052;BME280;14601;49.358;8.256;2022-07-05T13:39:01;100708.94;;;29.42;22.25
27052;BME280;14601;49.358;8.256;2022-07-05T13:42:03;100702.94;;;30.25;21.62
27052;BME280;14601;49.358;8.256;2022-07-05T13:45:06;100712.25;;;30.53;21.43
27052;BME280;14601;49.358;8.256;2022-07-05T13:48:09;100707.56;;;30.53;21.71
27052;BME280;14601;49.358;8.256;2022-07-05T13:51:11;100705.81;;;30.31;21.80
27052;BME280;14601;49.358;8.256;2022-07-05T13:54:13;100709.03;;;29.99;21.68
27052;BME280;14601;49.358;8.256;2022-07-05T13:57:16;100701.28;;;30.41;21.12
27052;BME280;14601;49.358;8.256;2022-07-05T14:00:17;100707.94;;;30.91;20.95
27052;BME280;14601;49.358;8.256;2022-07-05T14:03:19;100706.28;;;30.73;20.82
27052;BME280;14601;49.358;8.256;2022-07-05T14:06:21;100701.53;;;31.24;20.31
27052;BME280;14601;49.358;8.256;2022-07-05T14:09:24;100710.63;;;30.86;19.80
27052;BME280;14601;49.358;8.256;2022-07-05T14:12:26;100701.44;;;31.19;19.67
27052;BME280;14601;49.358;8.256;2022-07-05T14:15:32;100704.50;;;29.93;20.93
27052;BME280;14601;49.358;8.256;2022-07-05T14:18:34;100697.25;;;30.15;21.11
27052;BME280;14601;49.358;8.256;2022-07-05T14:21:36;100694.53;;;30.03;21.05
27052;BME280;14601;49.358;8.256;2022-07-05T14:24:40;100691.28;;;30.52;20.32
27052;BME280;14601;49.358;8.256;2022-07-05T14:27:43;100681.19;;;29.84;21.04
27052;BME280;14601;49.358;8.256;2022-07-05T14:30:45;100686.59;;;30.36;21.75
27052;BME280;14601;49.358;8.256;2022-07-05T14:33:47;100684.91;;;31.36;20.77
27052;BME280;14601;49.358;8.256;2022-07-05T14:36:49;100679.88;;;31.76;19.82
27052;BME280;14601;49.358;8.256;2022-07-05T14:39:52;100673.91;;;30.35;20.40
27052;BME280;14601;49.358;8.256;2022-07-05T14:42:57;100682.41;;;30.50;20.78
27052;BME280;14601;49.358;8.256;2022-07-05T14:45:59;100664.56;;;30.52;21.44
27052;BME280;14601;49.358;8.256;2022-07-05T14:49:00;100657.72;;;31.11;20.35
27052;BME280;14601;49.358;8.256;2022-07-05T14:52:02;100667.13;;;30.42;20.87
27052;BME280;14601;49.358;8.256;2022-07-05T14:55:06;100666.72;;;29.24;22.25
27052;BME280;14601;49.358;8.256;2022-07-05T14:58:07;100662.97;;;29.54;22.15
27052;BME280;14601;49.358;8.256;2022-07-05T15:01:09;100657.97;;;30.08;21.30
27052;BME280;14601;49.358;8.256;2022-07-05T15:04:12;100664.19;;;29.58;21.88
27052;BME280;14601;49.358;8.256;2022-07-05T15:07:13;100665.91;;;29.12;22.67
27052;BME280;14601;49.358;8.256;2022-07-05T15:10:16;100653.72;;;28.85;22.64
27052;BME280;14601;49.358;8.256;2022-07-05T15:13:18;100657.97;;;28.92;22.73
27052;BME280;14601;49.358;8.256;2022-07-05T15:16:19;100662.41;;;29.28;22.16
27052;BME280;14601;49.358;8.256;2022-07-05T15:19:21;100662.31;;;28.65;23.00
27052;BME280;14601;49.358;8.256;2022-07-05T15:22:23;100669.84;;;28.27;23.43
27052;BME280;14601;49.358;8.256;2022-07-05T15:25:27;100665.13;;;28.04;23.60
27052;BME280;14601;49.358;8.256;2022-07-05T15:28:29;100658.34;;;28.19;23.59
27052;BME280;14601;49.358;8.256;2022-07-05T15:31:31;100652.84;;;28.72;22.91
27052;BME280;14601;49.358;8.256;2022-07-05T15:34:33;100643.75;;;28.95;22.49
27052;BME280;14601;49.358;8.256;2022-07-05T15:37:34;100650.59;;;29.16;22.36
27052;BME280;14601;49.358;8.256;2022-07-05T15:40:37;100647.97;;;28.74;22.48
27052;BME280;14601;49.358;8.256;2022-07-05T15:43:39;100648.78;;;28.51;23.08
27052;BME280;14601;49.358;8.256;2022-07-05T15:46:40;100646.88;;;28.64;22.35
27052;BME280;14601;49.358;8.256;2022-07-05T15:49:56;100646.50;;;28.95;21.98
27052;BME280;14601;49.358;8.256;2022-07-05T15:52:57;100642.69;;;29.72;21.24
27052;BME280;14601;49.358;8.256;2022-07-05T15:56:00;100647.41;;;29.60;21.03
27052;BME280;14601;49.358;8.256;2022-07-05T15:59:02;100639.53;;;29.40;21.08
27052;BME280;14601;49.358;8.256;2022-07-05T16:02:04;100655.16;;;28.99;21.84